createdAt,value
2023-05-15T00:01:17.910Z,27.70
2023-05-15T00:04:20.488Z,28.20
2023-05-15T00:07:22.482Z,27.90
2023-05-15T00:10:24.713Z,28.20
2023-05-15T00:13:27.133Z,27.70
2023-05-15T00:16:29.490Z,27.50
2023-05-15T00:19:31.381Z,27.20
2023-05-15T00:22:33.566Z,27.00
2023-05-15T00:25:35.599Z,27.00
2023-05-15T00:28:37.893Z,26.70
2023-05-15T00:31:39.884Z,26.80
2023-05-15T00:34:42.250Z,26.60
2023-05-15T00:37:44.244Z,26.40
2023-05-15T00:40:46.983Z,26.40
2023-05-15T00:43:53.922Z,26.20
2023-05-15T00:46:57.608Z,26.80
2023-05-15T00:50:00.281Z,27.80
2023-05-15T00:53:03.566Z,28.10
2023-05-15T00:56:06.556Z,28.50
2023-05-15T00:59:10.054Z,27.90
2023-05-15T01:02:15.964Z,28.40
2023-05-15T01:05:18.396Z,29.00
2023-05-15T01:08:27.212Z,28.70
2023-05-15T01:11:35.953Z,30.30
2023-05-15T01:14:37.902Z,30.40
2023-05-15T01:17:40.560Z,31.20
2023-05-15T01:21:16.272Z,30.30
2023-05-15T01:24:56.577Z,29.90
2023-05-15T01:28:09.511Z,30.20
2023-05-15T01:31:18.817Z,30.80
2023-05-15T01:34:26.991Z,31.00
2023-05-15T01:37:31.972Z,31.20
2023-05-15T01:40:34.533Z,31.70
2023-05-15T01:43:42.264Z,31.00
2023-05-15T01:46:49.551Z,30.70
2023-05-15T01:49:55.495Z,30.70
2023-05-15T01:53:00.871Z,30.20
2023-05-15T01:56:06.921Z,30.10
2023-05-15T01:59:09.687Z,30.80
2023-05-15T02:02:13.374Z,31.20
2023-05-15T02:05:16.360Z,31.40
2023-05-15T02:08:19.432Z,30.50
2023-05-15T02:11:21.496Z,30.60
2023-05-15T02:14:26.158Z,31.10
2023-05-15T02:17:29.437Z,30.90
2023-05-15T02:20:32.105Z,31.00
2023-05-15T02:23:34.077Z,31.50
2023-05-15T02:26:51.490Z,30.80
2023-05-15T02:30:11.153Z,30.80
2023-05-15T02:33:52.611Z,31.10
2023-05-15T02:36:57.964Z,31.10
2023-05-15T02:40:02.111Z,30.00
2023-05-15T02:43:05.631Z,29.80
2023-05-15T02:46:08.715Z,29.80
2023-05-15T02:49:12.237Z,30.80
2023-05-15T02:52:14.523Z,30.20
2023-05-15T02:55:16.522Z,29.80
2023-05-15T02:58:18.832Z,30.20
2023-05-15T03:01:21.209Z,31.40
2023-05-15T03:04:23.692Z,31.80
2023-05-15T03:07:25.836Z,32.60
2023-05-15T03:10:28.070Z,32.20
2023-05-15T03:13:29.997Z,31.50
2023-05-15T03:16:32.261Z,31.30
2023-05-15T03:19:34.236Z,32.00
2023-05-15T03:22:36.521Z,32.50
2023-05-15T03:25:38.462Z,32.30
2023-05-15T03:28:42.284Z,32.20
2023-05-15T03:31:44.433Z,32.10
2023-05-15T03:34:46.799Z,31.80
2023-05-15T03:37:48.770Z,32.10
2023-05-15T03:40:53.845Z,32.30
2023-05-15T03:43:55.930Z,31.80
2023-05-15T03:46:58.115Z,32.00
2023-05-15T03:50:00.028Z,32.50
2023-05-15T03:53:02.276Z,32.10
2023-05-15T03:56:04.744Z,32.40
2023-05-15T03:59:07.336Z,32.10
2023-05-15T04:02:09.263Z,31.90
2023-05-15T04:05:11.712Z,32.20
2023-05-15T04:08:13.696Z,32.20
2023-05-15T04:11:16.573Z,31.90
2023-05-15T04:14:18.596Z,32.00
2023-05-15T04:17:20.850Z,31.80
2023-05-15T04:20:24.786Z,31.80
2023-05-15T04:23:26.995Z,32.10
2023-05-15T04:26:29.043Z,32.10
2023-05-15T04:29:31.529Z,31.50
2023-05-15T04:32:36.378Z,31.50
2023-05-15T04:35:38.876Z,31.60
2023-05-15T04:38:41.202Z,32.00
2023-05-15T04:41:45.619Z,32.40
2023-05-15T04:44:47.789Z,32.50
2023-05-15T04:47:51.378Z,32.40
2023-05-15T04:50:53.471Z,32.50
2023-05-15T04:53:55.762Z,33.10
2023-05-15T04:56:58.037Z,34.10
2023-05-15T05:00:00.714Z,35.50
2023-05-15T05:03:02.803Z,35.20
2023-05-15T05:06:05.323Z,36.00
2023-05-15T05:09:07.233Z,36.60
2023-05-15T05:12:10.024Z,35.90
2023-05-15T05:15:12.144Z,34.80
2023-05-15T05:18:14.437Z,34.40
2023-05-15T05:21:16.429Z,34.00
2023-05-15T05:24:18.739Z,34.30
2023-05-15T05:27:20.633Z,33.20
2023-05-15T05:30:23.031Z,33.10
2023-05-15T05:33:25.025Z,33.50
2023-05-15T05:36:27.599Z,33.50
2023-05-15T05:39:29.573Z,33.40
2023-05-15T05:42:31.836Z,34.10
2023-05-15T05:45:39.852Z,35.60
2023-05-15T05:48:42.511Z,37.10
2023-05-15T05:51:46.204Z,37.50
2023-05-15T05:54:48.398Z,37.80
2023-05-15T05:57:51.115Z,38.00
2023-05-15T06:00:54.115Z,38.80
2023-05-15T06:03:56.253Z,39.50
2023-05-15T06:06:58.574Z,39.30
2023-05-15T06:10:01.242Z,37.90
2023-05-15T06:13:03.449Z,38.20
2023-05-15T06:16:05.871Z,37.30
2023-05-15T06:19:08.122Z,39.00
2023-05-15T06:22:10.221Z,39.00
2023-05-15T06:25:14.181Z,39.50
2023-05-15T06:28:16.074Z,39.60
2023-05-15T06:31:18.488Z,38.90
2023-05-15T06:34:20.501Z,39.10
2023-05-15T06:37:22.674Z,37.50
2023-05-15T06:40:24.847Z,37.90
2023-05-15T06:43:27.227Z,37.60
2023-05-15T06:46:29.347Z,37.20
2023-05-15T06:49:31.705Z,37.90
2023-05-15T06:52:33.886Z,38.00
2023-05-15T06:55:38.064Z,39.00
2023-05-15T06:58:39.960Z,38.90
2023-05-15T07:01:42.294Z,39.30
2023-05-15T07:04:44.287Z,39.50
2023-05-15T07:07:46.561Z,39.30
2023-05-15T07:10:49.513Z,40.50
2023-05-15T07:13:53.267Z,40.50
2023-05-15T07:16:55.262Z,39.70
2023-05-15T07:19:57.560Z,40.90
2023-05-15T07:22:59.717Z,41.20
2023-05-15T07:26:02.006Z,41.60
2023-05-15T07:29:04.229Z,42.50
2023-05-15T07:32:07.353Z,41.10
2023-05-15T07:35:11.477Z,41.50
2023-05-15T07:38:13.969Z,41.50
2023-05-15T07:41:16.138Z,40.40
2023-05-15T07:44:18.418Z,39.80
2023-05-15T07:47:20.936Z,39.30
2023-05-15T07:50:23.277Z,39.00
2023-05-15T07:53:25.323Z,39.20
2023-05-15T07:56:28.690Z,38.80
2023-05-15T07:59:31.090Z,39.70
2023-05-15T08:02:33.510Z,41.00
2023-05-15T08:05:35.514Z,41.90
2023-05-15T08:08:37.773Z,41.60
2023-05-15T08:11:42.000Z,42.00
2023-05-15T08:14:44.361Z,44.30
2023-05-15T08:17:46.489Z,43.70
2023-05-15T08:20:49.301Z,42.90
2023-05-15T08:23:54.799Z,43.80
2023-05-15T08:26:57.683Z,43.90
2023-05-15T08:30:02.698Z,43.60
2023-05-15T08:33:05.014Z,42.70
2023-05-15T08:36:07.697Z,42.20
2023-05-15T08:39:10.064Z,41.80
2023-05-15T08:42:34.270Z,41.00
2023-05-15T08:45:37.151Z,40.90
2023-05-15T08:48:42.217Z,41.10
2023-05-15T08:51:44.868Z,41.20
2023-05-15T08:54:48.541Z,39.40
2023-05-15T08:57:51.433Z,40.30
2023-05-15T09:00:53.463Z,40.40
2023-05-15T09:03:55.976Z,39.80
2023-05-15T09:07:00.865Z,39.20
2023-05-15T09:10:03.906Z,38.70
2023-05-15T09:13:07.837Z,38.70
2023-05-15T09:16:10.150Z,38.20
2023-05-15T09:19:14.196Z,39.30
2023-05-15T09:22:18.387Z,38.40
2023-05-15T09:25:37.459Z,37.80
2023-05-15T09:29:01.932Z,37.60
2023-05-15T09:32:09.725Z,38.60
2023-05-15T09:35:31.555Z,38.90
2023-05-15T09:38:35.085Z,40.00
2023-05-15T09:41:42.987Z,43.30
2023-05-15T09:44:46.409Z,42.70
2023-05-15T09:47:48.866Z,40.90
2023-05-15T09:50:51.286Z,39.70
2023-05-15T09:53:55.358Z,39.30
2023-05-15T09:57:07.165Z,40.00
2023-05-15T10:00:11.883Z,38.90
2023-05-15T10:03:14.660Z,38.80
2023-05-15T10:06:19.018Z,38.60
2023-05-15T10:09:21.957Z,38.90
2023-05-15T10:12:25.043Z,37.80
2023-05-15T10:15:27.706Z,37.80
2023-05-15T10:18:33.177Z,38.70
2023-05-15T10:21:40.605Z,38.30
2023-05-15T10:24:44.927Z,37.10
2023-05-15T10:27:48.080Z,37.20
2023-05-15T10:30:50.904Z,37.00
2023-05-15T10:33:55.468Z,37.00
2023-05-15T10:36:58.360Z,36.90
2023-05-15T10:40:01.528Z,36.60
2023-05-15T10:43:04.881Z,36.50
2023-05-15T10:46:07.507Z,37.80
2023-05-15T10:49:09.945Z,36.70
2023-05-15T10:52:11.999Z,37.10
2023-05-15T10:55:16.829Z,37.00
2023-05-15T10:58:25.112Z,36.70
2023-05-15T11:01:27.981Z,36.20
2023-05-15T11:04:33.496Z,36.00
2023-05-15T11:07:35.934Z,36.00
2023-05-15T11:10:38.964Z,35.80
2023-05-15T11:14:06.068Z,36.00
2023-05-15T11:17:10.314Z,35.60
2023-05-15T11:20:12.915Z,35.90
2023-05-15T11:23:14.860Z,35.70
2023-05-15T11:26:20.899Z,36.20
2023-05-15T11:29:24.244Z,36.10
2023-05-15T11:32:48.454Z,36.20
2023-05-15T11:35:58.534Z,37.30
2023-05-15T11:39:01.773Z,36.70
2023-05-15T11:42:12.018Z,36.70
2023-05-15T11:45:15.222Z,35.70
2023-05-15T11:48:18.527Z,35.50
2023-05-15T11:51:24.867Z,35.00
2023-05-15T11:54:27.402Z,35.30
2023-05-15T11:57:29.838Z,36.00
2023-05-15T12:00:32.078Z,36.00
2023-05-15T12:03:36.364Z,36.00
2023-05-15T12:06:39.896Z,35.80
2023-05-15T12:09:42.291Z,35.70
2023-05-15T12:12:46.187Z,35.40
2023-05-15T12:15:48.599Z,34.90
2023-05-15T12:18:50.691Z,35.00
2023-05-15T12:21:52.957Z,35.60
2023-05-15T12:24:59.729Z,35.50
2023-05-15T12:28:03.934Z,35.10
2023-05-15T12:31:05.949Z,34.50
2023-05-15T12:34:09.219Z,35.50
2023-05-15T12:37:14.484Z,34.40
2023-05-15T12:40:31.682Z,34.40
2023-05-15T12:43:34.929Z,34.50
2023-05-15T12:46:37.498Z,33.80
2023-05-15T12:49:41.747Z,34.10
2023-05-15T12:52:54.488Z,34.20
2023-05-15T12:55:56.573Z,34.40
2023-05-15T12:58:58.831Z,34.40
2023-05-15T13:02:01.098Z,34.20
2023-05-15T13:05:04.944Z,34.00
2023-05-15T13:08:09.970Z,34.20
2023-05-15T13:11:16.708Z,34.80
2023-05-15T13:14:19.469Z,34.60
2023-05-15T13:17:22.236Z,34.10
2023-05-15T13:20:24.667Z,34.20
2023-05-15T13:23:27.056Z,34.10
2023-05-15T13:26:29.163Z,34.30
2023-05-15T13:29:31.400Z,33.50
2023-05-15T13:32:33.338Z,34.20
2023-05-15T13:35:36.733Z,34.40
2023-05-15T13:38:38.717Z,34.10
2023-05-15T13:41:40.933Z,33.70
2023-05-15T13:44:42.887Z,33.50
2023-05-15T13:47:45.586Z,33.00
2023-05-15T13:50:48.063Z,33.50
2023-05-15T13:53:50.421Z,33.30
2023-05-15T13:56:52.461Z,33.00
2023-05-15T13:59:54.710Z,33.60
2023-05-15T14:02:56.748Z,33.10
2023-05-15T14:05:59.015Z,32.90
2023-05-15T14:09:00.936Z,32.20
2023-05-15T14:12:03.607Z,32.40
2023-05-15T14:15:06.001Z,32.10
2023-05-15T14:18:08.279Z,32.30
2023-05-15T14:21:10.341Z,32.30
2023-05-15T14:24:13.478Z,32.80
2023-05-15T14:27:15.488Z,32.60
2023-05-15T14:30:18.415Z,33.20
2023-05-15T14:33:20.652Z,32.80
2023-05-15T14:36:22.861Z,33.70
2023-05-15T14:39:24.898Z,32.70
2023-05-15T14:42:27.330Z,33.20
2023-05-15T14:45:29.409Z,33.10
2023-05-15T14:48:31.893Z,32.80
2023-05-15T14:51:33.950Z,33.30
2023-05-15T14:54:37.238Z,33.60
2023-05-15T14:57:39.288Z,33.50
2023-05-15T15:00:41.637Z,33.40
2023-05-15T15:03:43.696Z,33.10
2023-05-15T15:06:47.855Z,33.20
2023-05-15T15:09:49.871Z,33.00
2023-05-15T15:12:52.215Z,33.00
2023-05-15T15:15:55.820Z,33.40
2023-05-15T15:18:58.056Z,33.00
2023-05-15T15:22:00.009Z,32.90
2023-05-15T15:25:02.280Z,33.30
2023-05-15T15:28:04.472Z,33.60
2023-05-15T15:31:06.712Z,33.20
2023-05-15T15:34:09.057Z,33.70
2023-05-15T15:37:11.438Z,33.70
2023-05-15T15:40:13.582Z,34.10
2023-05-15T15:43:15.957Z,34.00
2023-05-15T15:46:18.048Z,33.70
2023-05-15T15:49:20.591Z,33.50
2023-05-15T15:52:22.516Z,33.50
2023-05-15T15:55:24.833Z,33.50
2023-05-15T15:58:26.836Z,33.50
2023-05-15T16:01:29.178Z,33.90
2023-05-15T16:04:31.220Z,34.00
2023-05-15T16:07:34.329Z,34.00
2023-05-15T16:10:36.364Z,34.30
2023-05-15T16:13:40.869Z,34.10
2023-05-15T16:16:43.121Z,33.90
2023-05-15T16:19:45.494Z,33.70
2023-05-15T16:22:47.420Z,33.90
2023-05-15T16:25:49.697Z,33.70
2023-05-15T16:28:51.600Z,33.90
2023-05-15T16:31:54.039Z,34.10
2023-05-15T16:34:56.024Z,34.00
2023-05-15T16:37:58.314Z,34.10
2023-05-15T16:41:00.289Z,33.80
2023-05-15T16:44:03.399Z,33.90
2023-05-15T16:47:05.615Z,34.00
2023-05-15T16:50:08.532Z,34.30
2023-05-15T16:53:10.686Z,34.10
2023-05-15T16:56:14.114Z,34.10
2023-05-15T16:59:16.509Z,33.90
2023-05-15T17:02:18.740Z,33.70
2023-05-15T17:05:21.219Z,34.00
2023-05-15T17:08:23.512Z,33.70
2023-05-15T17:11:25.616Z,33.70
2023-05-15T17:14:27.905Z,33.70
2023-05-15T17:17:29.960Z,34.00
2023-05-15T17:20:32.191Z,33.90
2023-05-15T17:23:34.477Z,33.80
2023-05-15T17:26:36.695Z,33.90
2023-05-15T17:29:38.671Z,34.40
2023-05-15T17:32:41.174Z,34.20
2023-05-15T17:35:43.256Z,34.00
2023-05-15T17:38:45.520Z,33.90
2023-05-15T17:41:47.473Z,33.80
2023-05-15T17:44:49.705Z,33.60
2023-05-15T17:47:52.318Z,33.70
2023-05-15T17:50:54.880Z,33.60
2023-05-15T17:53:56.811Z,33.50
2023-05-15T17:56:59.151Z,33.70
2023-05-15T18:00:01.045Z,33.60
2023-05-15T18:03:03.719Z,33.70
2023-05-15T18:06:06.106Z,33.80
2023-05-15T18:09:09.365Z,33.60
2023-05-15T18:12:11.291Z,33.70
2023-05-15T18:15:13.525Z,33.50
2023-05-15T18:18:15.518Z,33.40
2023-05-15T18:21:18.335Z,33.70
2023-05-15T18:24:20.333Z,33.80
2023-05-15T18:27:22.567Z,33.80
2023-05-15T18:30:25.593Z,33.50
2023-05-15T18:33:32.682Z,33.40
2023-05-15T18:36:34.741Z,33.40
2023-05-15T18:39:38.376Z,33.40
2023-05-15T18:42:40.420Z,33.40
2023-05-15T18:45:42.775Z,33.50
2023-05-15T18:48:44.818Z,33.50
2023-05-15T18:51:47.126Z,33.40
2023-05-15T18:54:59.304Z,33.10
2023-05-15T18:58:01.883Z,33.30
2023-05-15T19:01:03.917Z,33.10
2023-05-15T19:04:06.518Z,33.30
2023-05-15T19:07:08.454Z,33.50
2023-05-15T19:10:11.110Z,33.40
2023-05-15T19:13:13.147Z,33.40
2023-05-15T19:16:15.638Z,33.50
2023-05-15T19:19:18.143Z,33.50
2023-05-15T19:22:20.960Z,33.50
2023-05-15T19:25:23.036Z,33.50
2023-05-15T19:28:29.002Z,33.50
2023-05-15T19:31:32.415Z,33.60
2023-05-15T19:34:35.122Z,33.30
2023-05-15T19:37:37.378Z,34.20
2023-05-15T19:40:44.007Z,33.20
2023-05-15T19:43:47.018Z,33.50
2023-05-15T19:46:49.459Z,33.50
2023-05-15T19:49:51.372Z,33.70
2023-05-15T19:52:53.712Z,33.50
2023-05-15T19:55:56.685Z,33.40
2023-05-15T19:59:00.406Z,33.30
2023-05-15T20:02:03.065Z,33.20
2023-05-15T20:05:06.108Z,33.10
2023-05-15T20:08:08.029Z,33.10
2023-05-15T20:11:10.322Z,33.00
2023-05-15T20:14:14.003Z,33.00
2023-05-15T20:17:17.173Z,33.20
2023-05-15T20:20:19.352Z,33.00
2023-05-15T20:23:22.094Z,32.80
2023-05-15T20:26:24.114Z,32.80
2023-05-15T20:29:26.322Z,33.40
2023-05-15T20:32:28.424Z,33.40
2023-05-15T20:35:31.108Z,34.40
2023-05-15T20:38:33.860Z,33.70
2023-05-15T20:41:37.040Z,33.40
2023-05-15T20:44:39.468Z,33.10
2023-05-15T20:47:41.883Z,33.70
2023-05-15T20:50:44.122Z,33.40
2023-05-15T20:53:46.285Z,33.20
2023-05-15T20:56:48.235Z,33.40
2023-05-15T20:59:50.720Z,33.00
2023-05-15T21:02:52.783Z,32.80
2023-05-15T21:05:57.061Z,32.80
2023-05-15T21:08:59.647Z,32.80
2023-05-15T21:12:03.765Z,32.70
2023-05-15T21:15:06.459Z,33.20
2023-05-15T21:18:08.819Z,34.40
2023-05-15T21:21:10.790Z,34.60
2023-05-15T21:24:13.180Z,34.30
2023-05-15T21:27:35.267Z,34.50
2023-05-15T21:30:37.748Z,33.80
2023-05-15T21:33:41.456Z,33.20
2023-05-15T21:36:43.939Z,33.80
2023-05-15T21:39:45.981Z,33.60
2023-05-15T21:42:48.245Z,34.00
2023-05-15T21:45:50.250Z,34.10
2023-05-15T21:48:52.427Z,34.10
2023-05-15T21:51:54.404Z,34.70
2023-05-15T21:54:56.694Z,34.50
2023-05-15T21:57:58.623Z,34.40
2023-05-15T22:01:01.319Z,34.10
2023-05-15T22:04:03.430Z,33.80
2023-05-15T22:07:06.188Z,34.90
2023-05-15T22:10:08.733Z,34.70
2023-05-15T22:13:11.099Z,35.10
2023-05-15T22:16:13.204Z,34.80
2023-05-15T22:19:31.547Z,34.70
2023-05-15T22:22:35.708Z,34.00
2023-05-15T22:25:56.137Z,34.10
2023-05-15T22:28:58.587Z,33.90
2023-05-15T22:32:00.725Z,33.70
2023-05-15T22:35:21.047Z,33.70
2023-05-15T22:38:41.450Z,33.40
2023-05-15T22:41:43.635Z,33.30
2023-05-15T22:44:46.483Z,34.00
2023-05-15T22:47:49.467Z,34.40
2023-05-15T22:50:52.475Z,35.30
2023-05-15T22:53:55.146Z,34.60
2023-05-15T22:56:57.153Z,35.00
2023-05-15T22:59:59.352Z,34.90
2023-05-15T23:03:19.730Z,35.10
2023-05-15T23:06:42.817Z,34.70
2023-05-15T23:09:45.281Z,34.70
2023-05-15T23:12:47.178Z,34.40
2023-05-15T23:15:49.422Z,34.50
2023-05-15T23:18:54.417Z,34.40
2023-05-15T23:21:56.846Z,34.80
2023-05-15T23:24:58.854Z,34.40
2023-05-15T23:28:01.120Z,34.10
2023-05-15T23:31:03.179Z,33.80
2023-05-15T23:34:05.342Z,34.30
2023-05-15T23:37:07.208Z,34.20
2023-05-15T23:40:09.787Z,34.50
2023-05-15T23:43:11.737Z,34.50
2023-05-15T23:46:13.961Z,34.60
2023-05-15T23:49:15.967Z,34.40
2023-05-15T23:52:18.395Z,33.90
2023-05-15T23:55:20.590Z,33.20
2023-05-15T23:58:23.541Z,33.00
